sensor_id;sensor_type;location;lat;lon;timestamp;P1;durP1;ratioP1;P2;durP2;ratioP2
50605;SDS011;36557;53.572;10.170;2023-03-23T00:02:02;5.50;;;3.35;;
50605;SDS011;36557;53.572;10.170;2023-03-23T00:04:28;6.28;;;3.28;;
50605;SDS011;36557;53.572;10.170;2023-03-23T00:06:54;6.38;;;3.05;;
50605;SDS011;36557;53.572;10.170;2023-03-23T00:09:20;4.97;;;3.17;;
50605;SDS011;36557;53.572;10.170;2023-03-23T00:11:48;5.75;;;3.50;;
50605;SDS011;36557;53.572;10.170;2023-03-23T00:14:16;6.90;;;3.40;;
50605;SDS011;36557;53.572;10.170;2023-03-23T00:16:47;7.78;;;3.72;;
50605;SDS011;36557;53.572;10.170;2023-03-23T00:19:14;7.35;;;4.18;;
50605;SDS011;36557;53.572;10.170;2023-03-23T00:21:40;5.32;;;3.85;;
50605;SDS011;36557;53.572;10.170;2023-03-23T00:26:36;6.28;;;3.85;;
50605;SDS011;36557;53.572;10.170;2023-03-23T00:29:05;10.35;;;4.07;;
50605;SDS011;36557;53.572;10.170;2023-03-23T00:31:32;7.75;;;4.22;;
50605;SDS011;36557;53.572;10.170;2023-03-23T00:34:00;7.55;;;4.15;;
50605;SDS011;36557;53.572;10.170;2023-03-23T00:36:29;6.45;;;4.30;;
50605;SDS011;36557;53.572;10.170;2023-03-23T00:38:56;7.20;;;4.60;;
50605;SDS011;36557;53.572;10.170;2023-03-23T00:41:26;7.30;;;5.05;;
50605;SDS011;36557;53.572;10.170;2023-03-23T00:43:56;5.20;;;4.32;;
50605;SDS011;36557;53.572;10.170;2023-03-23T00:46:25;7.47;;;4.88;;
50605;SDS011;36557;53.572;10.170;2023-03-23T00:48:53;7.07;;;4.93;;
50605;SDS011;36557;53.572;10.170;2023-03-23T00:51:19;8.82;;;5.07;;
50605;SDS011;36557;53.572;10.170;2023-03-23T00:53:45;6.75;;;4.22;;
50605;SDS011;36557;53.572;10.170;2023-03-23T00:56:12;9.00;;;5.43;;
50605;SDS011;36557;53.572;10.170;2023-03-23T00:58:38;7.43;;;5.70;;
50605;SDS011;36557;53.572;10.170;2023-03-23T01:01:05;6.57;;;5.32;;
50605;SDS011;36557;53.572;10.170;2023-03-23T01:03:31;9.48;;;5.28;;
50605;SDS011;36557;53.572;10.170;2023-03-23T01:06:03;10.15;;;5.95;;
50605;SDS011;36557;53.572;10.170;2023-03-23T01:08:37;8.75;;;5.80;;
50605;SDS011;36557;53.572;10.170;2023-03-23T01:11:10;9.68;;;5.82;;
50605;SDS011;36557;53.572;10.170;2023-03-23T01:13:40;8.35;;;6.40;;
50605;SDS011;36557;53.572;10.170;2023-03-23T01:16:07;10.00;;;6.05;;
50605;SDS011;36557;53.572;10.170;2023-03-23T01:18:34;8.18;;;5.72;;
50605;SDS011;36557;53.572;10.170;2023-03-23T01:21:05;9.65;;;5.90;;
50605;SDS011;36557;53.572;10.170;2023-03-23T01:23:50;10.93;;;6.18;;
50605;SDS011;36557;53.572;10.170;2023-03-23T01:26:17;9.73;;;5.97;;
50605;SDS011;36557;53.572;10.170;2023-03-23T01:28:45;6.80;;;5.95;;
50605;SDS011;36557;53.572;10.170;2023-03-23T01:31:12;8.27;;;5.32;;
50605;SDS011;36557;53.572;10.170;2023-03-23T01:33:41;9.10;;;5.82;;
50605;SDS011;36557;53.572;10.170;2023-03-23T01:36:09;10.48;;;6.10;;
50605;SDS011;36557;53.572;10.170;2023-03-23T01:38:36;11.02;;;5.95;;
50605;SDS011;36557;53.572;10.170;2023-03-23T01:41:02;10.30;;;6.82;;
50605;SDS011;36557;53.572;10.170;2023-03-23T01:43:29;9.00;;;5.80;;
50605;SDS011;36557;53.572;10.170;2023-03-23T01:45:55;10.50;;;5.90;;
50605;SDS011;36557;53.572;10.170;2023-03-23T01:48:22;8.55;;;5.97;;
50605;SDS011;36557;53.572;10.170;2023-03-23T01:51:03;8.40;;;6.20;;
50605;SDS011;36557;53.572;10.170;2023-03-23T01:53:34;9.10;;;5.43;;
50605;SDS011;36557;53.572;10.170;2023-03-23T01:56:05;9.23;;;5.47;;
50605;SDS011;36557;53.572;10.170;2023-03-23T01:58:33;8.55;;;5.53;;
50605;SDS011;36557;53.572;10.170;2023-03-23T02:01:05;9.60;;;5.47;;
50605;SDS011;36557;53.572;10.170;2023-03-23T02:06:03;8.52;;;5.47;;
50605;SDS011;36557;53.572;10.170;2023-03-23T02:08:30;7.05;;;5.72;;
50605;SDS011;36557;53.572;10.170;2023-03-23T02:10:58;7.38;;;5.18;;
50605;SDS011;36557;53.572;10.170;2023-03-23T02:13:25;8.25;;;5.53;;
50605;SDS011;36557;53.572;10.170;2023-03-23T02:18:43;7.43;;;5.13;;
50605;SDS011;36557;53.572;10.170;2023-03-23T02:21:29;12.60;;;5.30;;
50605;SDS011;36557;53.572;10.170;2023-03-23T02:27:08;8.85;;;5.22;;
50605;SDS011;36557;53.572;10.170;2023-03-23T02:35:22;8.20;;;5.22;;
50605;SDS011;36557;53.572;10.170;2023-03-23T02:37:59;6.68;;;4.45;;
50605;SDS011;36557;53.572;10.170;2023-03-23T02:40:28;8.52;;;4.80;;
50605;SDS011;36557;53.572;10.170;2023-03-23T02:42:57;8.05;;;4.75;;
50605;SDS011;36557;53.572;10.170;2023-03-23T02:45:25;9.43;;;5.00;;
50605;SDS011;36557;53.572;10.170;2023-03-23T02:47:54;8.55;;;5.05;;
50605;SDS011;36557;53.572;10.170;2023-03-23T02:50:22;7.93;;;4.70;;
50605;SDS011;36557;53.572;10.170;2023-03-23T02:52:50;6.10;;;4.38;;
50605;SDS011;36557;53.572;10.170;2023-03-23T02:55:18;6.25;;;5.10;;
50605;SDS011;36557;53.572;10.170;2023-03-23T02:57:49;6.00;;;4.03;;
50605;SDS011;36557;53.572;10.170;2023-03-23T03:00:17;6.65;;;4.65;;
50605;SDS011;36557;53.572;10.170;2023-03-23T03:02:53;6.40;;;4.57;;
50605;SDS011;36557;53.572;10.170;2023-03-23T03:08:26;6.50;;;4.60;;
50605;SDS011;36557;53.572;10.170;2023-03-23T03:11:08;7.55;;;4.22;;
50605;SDS011;36557;53.572;10.170;2023-03-23T03:18:57;6.80;;;4.68;;
50605;SDS011;36557;53.572;10.170;2023-03-23T03:21:33;6.85;;;4.65;;
50605;SDS011;36557;53.572;10.170;2023-03-23T03:24:04;6.63;;;4.28;;
50605;SDS011;36557;53.572;10.170;2023-03-23T03:26:36;7.07;;;4.40;;
50605;SDS011;36557;53.572;10.170;2023-03-23T03:29:10;7.30;;;4.93;;
50605;SDS011;36557;53.572;10.170;2023-03-23T03:31:38;4.68;;;4.20;;
50605;SDS011;36557;53.572;10.170;2023-03-23T03:34:10;8.27;;;4.72;;
50605;SDS011;36557;53.572;10.170;2023-03-23T03:36:42;8.38;;;4.57;;
50605;SDS011;36557;53.572;10.170;2023-03-23T03:39:10;8.70;;;5.03;;
50605;SDS011;36557;53.572;10.170;2023-03-23T03:41:39;6.93;;;4.47;;
50605;SDS011;36557;53.572;10.170;2023-03-23T03:44:06;6.78;;;4.95;;
50605;SDS011;36557;53.572;10.170;2023-03-23T03:46:33;6.28;;;4.68;;
50605;SDS011;36557;53.572;10.170;2023-03-23T03:49:00;6.95;;;4.40;;
50605;SDS011;36557;53.572;10.170;2023-03-23T03:51:28;6.95;;;4.40;;
50605;SDS011;36557;53.572;10.170;2023-03-23T03:53:55;8.05;;;5.03;;
50605;SDS011;36557;53.572;10.170;2023-03-23T03:56:21;6.28;;;4.55;;
50605;SDS011;36557;53.572;10.170;2023-03-23T03:58:48;6.47;;;4.40;;
50605;SDS011;36557;53.572;10.170;2023-03-23T04:01:15;7.05;;;4.75;;
50605;SDS011;36557;53.572;10.170;2023-03-23T04:03:43;6.60;;;4.57;;
50605;SDS011;36557;53.572;10.170;2023-03-23T04:06:10;8.20;;;4.78;;
50605;SDS011;36557;53.572;10.170;2023-03-23T04:08:37;6.47;;;4.60;;
50605;SDS011;36557;53.572;10.170;2023-03-23T04:11:04;8.00;;;5.00;;
50605;SDS011;36557;53.572;10.170;2023-03-23T04:13:30;7.13;;;4.65;;
50605;SDS011;36557;53.572;10.170;2023-03-23T04:15:56;6.97;;;4.93;;
50605;SDS011;36557;53.572;10.170;2023-03-23T04:18:22;8.25;;;5.10;;
50605;SDS011;36557;53.572;10.170;2023-03-23T04:20:49;6.85;;;5.05;;
50605;SDS011;36557;53.572;10.170;2023-03-23T04:23:16;9.45;;;4.85;;
50605;SDS011;36557;53.572;10.170;2023-03-23T04:25:46;7.25;;;5.25;;
50605;SDS011;36557;53.572;10.170;2023-03-23T04:28:14;8.52;;;5.18;;
50605;SDS011;36557;53.572;10.170;2023-03-23T04:30:42;6.60;;;4.97;;
50605;SDS011;36557;53.572;10.170;2023-03-23T04:33:08;6.22;;;4.57;;
50605;SDS011;36557;53.572;10.170;2023-03-23T04:35:39;10.93;;;4.93;;
50605;SDS011;36557;53.572;10.170;2023-03-23T04:38:05;6.97;;;4.60;;
50605;SDS011;36557;53.572;10.170;2023-03-23T04:40:32;7.78;;;5.15;;
50605;SDS011;36557;53.572;10.170;2023-03-23T04:43:01;7.32;;;5.10;;
50605;SDS011;36557;53.572;10.170;2023-03-23T04:45:30;6.20;;;4.93;;
50605;SDS011;36557;53.572;10.170;2023-03-23T04:48:03;6.75;;;4.95;;
50605;SDS011;36557;53.572;10.170;2023-03-23T04:50:31;7.90;;;5.60;;
50605;SDS011;36557;53.572;10.170;2023-03-23T04:53:01;6.82;;;5.45;;
50605;SDS011;36557;53.572;10.170;2023-03-23T04:55:33;8.75;;;5.50;;
50605;SDS011;36557;53.572;10.170;2023-03-23T04:58:04;7.73;;;5.83;;
50605;SDS011;36557;53.572;10.170;2023-03-23T05:00:34;7.07;;;4.93;;
50605;SDS011;36557;53.572;10.170;2023-03-23T05:03:00;10.18;;;5.30;;
50605;SDS011;36557;53.572;10.170;2023-03-23T05:05:26;8.15;;;5.38;;
50605;SDS011;36557;53.572;10.170;2023-03-23T05:07:54;6.20;;;4.95;;
50605;SDS011;36557;53.572;10.170;2023-03-23T05:10:20;6.63;;;4.97;;
50605;SDS011;36557;53.572;10.170;2023-03-23T05:12:46;7.82;;;5.18;;
50605;SDS011;36557;53.572;10.170;2023-03-23T05:15:13;8.63;;;5.15;;
50605;SDS011;36557;53.572;10.170;2023-03-23T05:17:40;7.75;;;5.40;;
50605;SDS011;36557;53.572;10.170;2023-03-23T05:20:09;11.32;;;5.90;;
50605;SDS011;36557;53.572;10.170;2023-03-23T05:22:37;6.20;;;5.07;;
50605;SDS011;36557;53.572;10.170;2023-03-23T05:25:04;7.05;;;5.30;;
50605;SDS011;36557;53.572;10.170;2023-03-23T05:27:34;5.65;;;4.38;;
50605;SDS011;36557;53.572;10.170;2023-03-23T05:30:01;7.63;;;5.00;;
50605;SDS011;36557;53.572;10.170;2023-03-23T05:32:27;8.80;;;5.28;;
50605;SDS011;36557;53.572;10.170;2023-03-23T05:34:57;9.00;;;5.10;;
50605;SDS011;36557;53.572;10.170;2023-03-23T05:37:23;8.27;;;5.47;;
50605;SDS011;36557;53.572;10.170;2023-03-23T05:39:51;8.43;;;4.65;;
50605;SDS011;36557;53.572;10.170;2023-03-23T05:42:20;6.60;;;4.68;;
50605;SDS011;36557;53.572;10.170;2023-03-23T05:44:47;8.27;;;4.38;;
50605;SDS011;36557;53.572;10.170;2023-03-23T05:47:13;7.13;;;4.35;;
50605;SDS011;36557;53.572;10.170;2023-03-23T05:49:39;8.32;;;4.80;;
50605;SDS011;36557;53.572;10.170;2023-03-23T05:52:05;7.75;;;4.35;;
50605;SDS011;36557;53.572;10.170;2023-03-23T05:54:30;5.07;;;3.42;;
50605;SDS011;36557;53.572;10.170;2023-03-23T05:56:56;7.82;;;4.10;;
50605;SDS011;36557;53.572;10.170;2023-03-23T05:59:22;8.23;;;3.90;;
50605;SDS011;36557;53.572;10.170;2023-03-23T06:01:48;8.23;;;3.92;;
50605;SDS011;36557;53.572;10.170;2023-03-23T06:04:15;9.05;;;4.60;;
50605;SDS011;36557;53.572;10.170;2023-03-23T06:06:42;5.57;;;3.50;;
50605;SDS011;36557;53.572;10.170;2023-03-23T06:09:08;6.78;;;3.90;;
50605;SDS011;36557;53.572;10.170;2023-03-23T06:11:34;8.38;;;4.30;;
50605;SDS011;36557;53.572;10.170;2023-03-23T06:14:00;8.30;;;4.43;;
50605;SDS011;36557;53.572;10.170;2023-03-23T06:16:26;11.45;;;5.63;;
50605;SDS011;36557;53.572;10.170;2023-03-23T06:18:53;7.03;;;4.60;;
50605;SDS011;36557;53.572;10.170;2023-03-23T06:21:18;7.82;;;4.60;;
50605;SDS011;36557;53.572;10.170;2023-03-23T06:23:45;6.43;;;3.58;;
50605;SDS011;36557;53.572;10.170;2023-03-23T06:26:11;7.40;;;4.45;;
50605;SDS011;36557;53.572;10.170;2023-03-23T06:28:41;5.65;;;4.07;;
50605;SDS011;36557;53.572;10.170;2023-03-23T06:31:07;6.25;;;4.07;;
50605;SDS011;36557;53.572;10.170;2023-03-23T06:33:35;10.32;;;5.78;;
50605;SDS011;36557;53.572;10.170;2023-03-23T06:36:02;7.82;;;4.18;;
50605;SDS011;36557;53.572;10.170;2023-03-23T06:38:29;5.25;;;3.58;;
50605;SDS011;36557;53.572;10.170;2023-03-23T06:40:56;6.43;;;4.38;;
50605;SDS011;36557;53.572;10.170;2023-03-23T06:43:23;8.63;;;4.38;;
50605;SDS011;36557;53.572;10.170;2023-03-23T06:45:49;8.57;;;4.60;;
50605;SDS011;36557;53.572;10.170;2023-03-23T06:48:16;10.50;;;5.20;;
50605;SDS011;36557;53.572;10.170;2023-03-23T06:50:43;6.75;;;3.92;;
50605;SDS011;36557;53.572;10.170;2023-03-23T06:53:09;7.80;;;4.20;;
50605;SDS011;36557;53.572;10.170;2023-03-23T06:55:36;9.13;;;3.72;;
50605;SDS011;36557;53.572;10.170;2023-03-23T06:58:03;10.05;;;5.00;;
50605;SDS011;36557;53.572;10.170;2023-03-23T07:00:30;6.88;;;4.35;;
50605;SDS011;36557;53.572;10.170;2023-03-23T07:02:57;8.32;;;3.97;;
50605;SDS011;36557;53.572;10.170;2023-03-23T07:05:23;4.10;;;3.03;;
50605;SDS011;36557;53.572;10.170;2023-03-23T07:07:49;4.00;;;2.78;;
50605;SDS011;36557;53.572;10.170;2023-03-23T07:10:15;4.28;;;2.78;;
50605;SDS011;36557;53.572;10.170;2023-03-23T07:12:41;4.70;;;2.70;;
50605;SDS011;36557;53.572;10.170;2023-03-23T07:15:07;6.35;;;2.92;;
50605;SDS011;36557;53.572;10.170;2023-03-23T07:17:35;5.50;;;2.83;;
50605;SDS011;36557;53.572;10.170;2023-03-23T07:20:02;5.65;;;2.78;;
50605;SDS011;36557;53.572;10.170;2023-03-23T07:22:28;4.90;;;3.03;;
50605;SDS011;36557;53.572;10.170;2023-03-23T07:24:54;8.32;;;3.00;;
50605;SDS011;36557;53.572;10.170;2023-03-23T07:27:20;4.15;;;2.47;;
50605;SDS011;36557;53.572;10.170;2023-03-23T07:29:46;3.70;;;2.75;;
50605;SDS011;36557;53.572;10.170;2023-03-23T07:32:11;4.05;;;2.40;;
50605;SDS011;36557;53.572;10.170;2023-03-23T07:34:37;3.83;;;2.20;;
50605;SDS011;36557;53.572;10.170;2023-03-23T07:37:04;4.95;;;2.45;;
50605;SDS011;36557;53.572;10.170;2023-03-23T07:39:30;4.00;;;2.35;;
50605;SDS011;36557;53.572;10.170;2023-03-23T07:41:55;3.90;;;2.50;;
50605;SDS011;36557;53.572;10.170;2023-03-23T07:44:21;5.82;;;2.47;;
50605;SDS011;36557;53.572;10.170;2023-03-23T07:46:48;5.28;;;2.38;;
50605;SDS011;36557;53.572;10.170;2023-03-23T07:49:13;6.13;;;2.25;;
50605;SDS011;36557;53.572;10.170;2023-03-23T07:51:40;6.63;;;2.58;;
50605;SDS011;36557;53.572;10.170;2023-03-23T07:54:06;5.47;;;1.95;;
50605;SDS011;36557;53.572;10.170;2023-03-23T07:56:32;7.13;;;2.35;;
50605;SDS011;36557;53.572;10.170;2023-03-23T07:59:00;6.65;;;2.30;;
50605;SDS011;36557;53.572;10.170;2023-03-23T08:01:27;5.82;;;2.45;;
50605;SDS011;36557;53.572;10.170;2023-03-23T08:03:53;3.47;;;1.95;;
50605;SDS011;36557;53.572;10.170;2023-03-23T08:06:22;7.90;;;2.63;;
50605;SDS011;36557;53.572;10.170;2023-03-23T08:08:51;4.72;;;2.85;;
50605;SDS011;36557;53.572;10.170;2023-03-23T08:11:18;2.90;;;2.10;;
50605;SDS011;36557;53.572;10.170;2023-03-23T08:13:45;4.53;;;2.83;;
50605;SDS011;36557;53.572;10.170;2023-03-23T08:16:11;4.20;;;2.38;;
50605;SDS011;36557;53.572;10.170;2023-03-23T08:18:38;10.20;;;2.97;;
50605;SDS011;36557;53.572;10.170;2023-03-23T08:21:04;11.43;;;3.38;;
50605;SDS011;36557;53.572;10.170;2023-03-23T08:23:33;5.40;;;3.03;;
50605;SDS011;36557;53.572;10.170;2023-03-23T08:26:01;7.07;;;2.42;;
50605;SDS011;36557;53.572;10.170;2023-03-23T08:28:29;3.72;;;2.55;;
50605;SDS011;36557;53.572;10.170;2023-03-23T08:30:55;3.75;;;2.92;;
50605;SDS011;36557;53.572;10.170;2023-03-23T08:33:21;7.60;;;3.03;;
50605;SDS011;36557;53.572;10.170;2023-03-23T08:35:57;4.75;;;2.70;;
50605;SDS011;36557;53.572;10.170;2023-03-23T08:38:23;4.68;;;2.17;;
50605;SDS011;36557;53.572;10.170;2023-03-23T08:40:49;3.20;;;2.45;;
50605;SDS011;36557;53.572;10.170;2023-03-23T08:43:17;3.60;;;2.30;;
50605;SDS011;36557;53.572;10.170;2023-03-23T08:45:43;6.35;;;2.50;;
50605;SDS011;36557;53.572;10.170;2023-03-23T08:48:08;4.40;;;1.90;;
50605;SDS011;36557;53.572;10.170;2023-03-23T08:50:35;2.80;;;1.10;;
50605;SDS011;36557;53.572;10.170;2023-03-23T08:53:02;2.47;;;0.95;;
50605;SDS011;36557;53.572;10.170;2023-03-23T08:55:28;4.78;;;1.10;;
50605;SDS011;36557;53.572;10.170;2023-03-23T08:57:54;2.88;;;1.40;;
50605;SDS011;36557;53.572;10.170;2023-03-23T09:00:21;4.70;;;2.20;;
50605;SDS011;36557;53.572;10.170;2023-03-23T09:02:49;3.80;;;2.42;;
50605;SDS011;36557;53.572;10.170;2023-03-23T09:05:18;7.97;;;3.13;;
50605;SDS011;36557;53.572;10.170;2023-03-23T09:07:49;5.15;;;2.58;;
50605;SDS011;36557;53.572;10.170;2023-03-23T09:10:16;6.55;;;2.63;;
50605;SDS011;36557;53.572;10.170;2023-03-23T09:12:43;5.20;;;2.17;;
50605;SDS011;36557;53.572;10.170;2023-03-23T09:15:10;4.68;;;1.60;;
50605;SDS011;36557;53.572;10.170;2023-03-23T09:17:39;3.45;;;1.65;;
50605;SDS011;36557;53.572;10.170;2023-03-23T09:20:08;5.20;;;1.92;;
50605;SDS011;36557;53.572;10.170;2023-03-23T09:22:42;5.93;;;1.80;;
50605;SDS011;36557;53.572;10.170;2023-03-23T09:25:10;7.13;;;1.75;;
50605;SDS011;36557;53.572;10.170;2023-03-23T09:27:37;3.95;;;1.73;;
50605;SDS011;36557;53.572;10.170;2023-03-23T09:30:09;3.42;;;1.33;;
50605;SDS011;36557;53.572;10.170;2023-03-23T09:32:36;4.63;;;1.40;;
50605;SDS011;36557;53.572;10.170;2023-03-23T09:35:04;10.70;;;2.00;;
50605;SDS011;36557;53.572;10.170;2023-03-23T09:37:36;10.15;;;1.63;;
50605;SDS011;36557;53.572;10.170;2023-03-23T09:40:03;9.35;;;2.15;;
50605;SDS011;36557;53.572;10.170;2023-03-23T09:47:59;15.32;;;2.88;;
50605;SDS011;36557;53.572;10.170;2023-03-23T09:50:45;6.45;;;1.83;;
50605;SDS011;36557;53.572;10.170;2023-03-23T09:53:21;9.30;;;1.60;;
50605;SDS011;36557;53.572;10.170;2023-03-23T09:56:15;8.82;;;1.90;;
50605;SDS011;36557;53.572;10.170;2023-03-23T09:58:51;6.75;;;1.60;;
50605;SDS011;36557;53.572;10.170;2023-03-23T10:03:55;6.50;;;1.60;;
50605;SDS011;36557;53.572;10.170;2023-03-23T10:06:27;7.80;;;1.30;;
50605;SDS011;36557;53.572;10.170;2023-03-23T10:08:54;8.43;;;1.80;;
50605;SDS011;36557;53.572;10.170;2023-03-23T10:16:40;7.95;;;1.38;;
50605;SDS011;36557;53.572;10.170;2023-03-23T10:22:04;8.85;;;1.92;;
50605;SDS011;36557;53.572;10.170;2023-03-23T10:24:36;5.93;;;1.73;;
50605;SDS011;36557;53.572;10.170;2023-03-23T10:27:45;4.55;;;1.50;;
50605;SDS011;36557;53.572;10.170;2023-03-23T10:30:19;6.63;;;1.42;;
50605;SDS011;36557;53.572;10.170;2023-03-23T10:33:08;8.35;;;1.70;;
50605;SDS011;36557;53.572;10.170;2023-03-23T10:35:39;8.57;;;1.90;;
50605;SDS011;36557;53.572;10.170;2023-03-23T10:38:27;6.18;;;1.60;;
50605;SDS011;36557;53.572;10.170;2023-03-23T10:41:00;6.93;;;1.58;;
50605;SDS011;36557;53.572;10.170;2023-03-23T10:43:30;9.90;;;1.60;;
50605;SDS011;36557;53.572;10.170;2023-03-23T10:45:59;8.60;;;1.70;;
50605;SDS011;36557;53.572;10.170;2023-03-23T10:48:29;6.25;;;1.73;;
50605;SDS011;36557;53.572;10.170;2023-03-23T10:50:57;6.72;;;2.00;;
50605;SDS011;36557;53.572;10.170;2023-03-23T10:53:31;8.75;;;1.63;;
50605;SDS011;36557;53.572;10.170;2023-03-23T10:56:02;7.78;;;1.58;;
50605;SDS011;36557;53.572;10.170;2023-03-23T10:58:34;9.50;;;1.55;;
50605;SDS011;36557;53.572;10.170;2023-03-23T11:01:02;7.63;;;2.10;;
50605;SDS011;36557;53.572;10.170;2023-03-23T11:03:42;8.75;;;1.70;;
50605;SDS011;36557;53.572;10.170;2023-03-23T11:06:17;11.73;;;1.65;;
50605;SDS011;36557;53.572;10.170;2023-03-23T11:11:28;9.73;;;1.58;;
50605;SDS011;36557;53.572;10.170;2023-03-23T11:13:57;7.25;;;1.80;;
50605;SDS011;36557;53.572;10.170;2023-03-23T11:16:32;9.45;;;1.88;;
50605;SDS011;36557;53.572;10.170;2023-03-23T11:19:10;8.50;;;2.00;;
50605;SDS011;36557;53.572;10.170;2023-03-23T11:21:38;9.55;;;2.20;;
50605;SDS011;36557;53.572;10.170;2023-03-23T11:24:05;9.10;;;2.13;;
50605;SDS011;36557;53.572;10.170;2023-03-23T11:26:33;16.17;;;2.38;;
50605;SDS011;36557;53.572;10.170;2023-03-23T11:29:14;9.80;;;1.73;;
50605;SDS011;36557;53.572;10.170;2023-03-23T11:31:44;7.30;;;1.88;;
50605;SDS011;36557;53.572;10.170;2023-03-23T11:34:24;9.15;;;2.05;;
50605;SDS011;36557;53.572;10.170;2023-03-23T11:39:27;7.35;;;1.65;;
50605;SDS011;36557;53.572;10.170;2023-03-23T11:41:55;7.28;;;1.63;;
50605;SDS011;36557;53.572;10.170;2023-03-23T11:44:23;10.43;;;2.45;;
50605;SDS011;36557;53.572;10.170;2023-03-23T11:52:23;8.25;;;1.50;;
50605;SDS011;36557;53.572;10.170;2023-03-23T11:57:55;13.63;;;2.92;;
50605;SDS011;36557;53.572;10.170;2023-03-23T12:00:25;11.63;;;2.55;;
50605;SDS011;36557;53.572;10.170;2023-03-23T12:11:40;13.07;;;2.58;;
50605;SDS011;36557;53.572;10.170;2023-03-23T12:34:33;7.20;;;2.53;;
50605;SDS011;36557;53.572;10.170;2023-03-23T12:48:28;6.55;;;1.70;;
50605;SDS011;36557;53.572;10.170;2023-03-23T13:01:54;10.48;;;2.45;;
50605;SDS011;36557;53.572;10.170;2023-03-23T13:04:27;8.77;;;1.90;;
50605;SDS011;36557;53.572;10.170;2023-03-23T13:06:59;8.30;;;2.30;;
50605;SDS011;36557;53.572;10.170;2023-03-23T13:12:13;7.32;;;1.80;;
50605;SDS011;36557;53.572;10.170;2023-03-23T13:17:37;10.63;;;2.28;;
50605;SDS011;36557;53.572;10.170;2023-03-23T13:22:47;11.68;;;2.00;;
50605;SDS011;36557;53.572;10.170;2023-03-23T13:28:21;6.05;;;1.80;;
50605;SDS011;36557;53.572;10.170;2023-03-23T13:33:36;10.57;;;2.05;;
50605;SDS011;36557;53.572;10.170;2023-03-23T13:36:10;9.02;;;2.63;;
50605;SDS011;36557;53.572;10.170;2023-03-23T13:38:38;5.07;;;1.90;;
50605;SDS011;36557;53.572;10.170;2023-03-23T13:41:11;5.35;;;1.90;;
50605;SDS011;36557;53.572;10.170;2023-03-23T13:43:39;4.43;;;1.80;;
50605;SDS011;36557;53.572;10.170;2023-03-23T13:46:25;6.28;;;2.28;;
50605;SDS011;36557;53.572;10.170;2023-03-23T13:59:59;5.72;;;1.73;;
50605;SDS011;36557;53.572;10.170;2023-03-23T14:02:40;7.35;;;1.80;;
50605;SDS011;36557;53.572;10.170;2023-03-23T14:05:50;3.03;;;1.30;;
50605;SDS011;36557;53.572;10.170;2023-03-23T14:08:05;5.15;;;1.70;;
50605;SDS011;36557;53.572;10.170;2023-03-23T14:10:59;4.78;;;1.30;;
50605;SDS011;36557;53.572;10.170;2023-03-23T14:14:25;5.93;;;1.40;;
50605;SDS011;36557;53.572;10.170;2023-03-23T14:16:37;3.55;;;1.30;;
50605;SDS011;36557;53.572;10.170;2023-03-23T14:21:49;1.75;;;1.20;;
50605;SDS011;36557;53.572;10.170;2023-03-23T14:24:23;3.83;;;0.88;;
50605;SDS011;36557;53.572;10.170;2023-03-23T14:27:01;3.63;;;0.93;;
50605;SDS011;36557;53.572;10.170;2023-03-23T14:29:35;2.00;;;0.90;;
50605;SDS011;36557;53.572;10.170;2023-03-23T14:32:01;3.63;;;0.93;;
50605;SDS011;36557;53.572;10.170;2023-03-23T14:34:28;0.98;;;0.60;;
50605;SDS011;36557;53.572;10.170;2023-03-23T14:36:57;2.42;;;0.73;;
50605;SDS011;36557;53.572;10.170;2023-03-23T14:39:28;1.88;;;0.90;;
50605;SDS011;36557;53.572;10.170;2023-03-23T14:41:56;2.20;;;0.80;;
50605;SDS011;36557;53.572;10.170;2023-03-23T14:44:43;3.13;;;1.38;;
50605;SDS011;36557;53.572;10.170;2023-03-23T14:47:16;2.55;;;0.73;;
50605;SDS011;36557;53.572;10.170;2023-03-23T14:49:54;3.88;;;0.75;;
50605;SDS011;36557;53.572;10.170;2023-03-23T14:52:23;5.32;;;0.90;;
50605;SDS011;36557;53.572;10.170;2023-03-23T14:54:53;2.75;;;1.08;;
50605;SDS011;36557;53.572;10.170;2023-03-23T14:57:25;4.32;;;1.10;;
50605;SDS011;36557;53.572;10.170;2023-03-23T14:59:52;3.78;;;1.00;;
50605;SDS011;36557;53.572;10.170;2023-03-23T15:02:23;4.28;;;1.60;;
50605;SDS011;36557;53.572;10.170;2023-03-23T15:04:58;4.60;;;1.55;;
50605;SDS011;36557;53.572;10.170;2023-03-23T15:07:30;2.67;;;1.00;;
50605;SDS011;36557;53.572;10.170;2023-03-23T15:09:58;4.78;;;1.30;;
50605;SDS011;36557;53.572;10.170;2023-03-23T15:12:25;4.07;;;1.05;;
50605;SDS011;36557;53.572;10.170;2023-03-23T15:14:55;7.45;;;1.33;;
50605;SDS011;36557;53.572;10.170;2023-03-23T15:17:26;4.50;;;1.10;;
50605;SDS011;36557;53.572;10.170;2023-03-23T15:19:54;3.78;;;1.20;;
50605;SDS011;36557;53.572;10.170;2023-03-23T15:27:39;3.17;;;1.13;;
50605;SDS011;36557;53.572;10.170;2023-03-23T15:32:52;3.70;;;1.30;;
50605;SDS011;36557;53.572;10.170;2023-03-23T15:35:24;4.30;;;1.80;;
50605;SDS011;36557;53.572;10.170;2023-03-23T15:37:51;3.45;;;1.30;;
50605;SDS011;36557;53.572;10.170;2023-03-23T15:40:22;4.82;;;1.98;;
50605;SDS011;36557;53.572;10.170;2023-03-23T15:42:50;4.07;;;2.00;;
50605;SDS011;36557;53.572;10.170;2023-03-23T15:45:30;6.63;;;2.33;;
50605;SDS011;36557;53.572;10.170;2023-03-23T15:47:57;9.43;;;2.33;;
50605;SDS011;36557;53.572;10.170;2023-03-23T15:50:34;6.78;;;1.98;;
50605;SDS011;36557;53.572;10.170;2023-03-23T15:53:01;3.75;;;1.70;;
50605;SDS011;36557;53.572;10.170;2023-03-23T15:55:40;4.18;;;1.50;;
50605;SDS011;36557;53.572;10.170;2023-03-23T15:58:10;7.28;;;1.60;;
50605;SDS011;36557;53.572;10.170;2023-03-23T16:00:37;4.13;;;1.30;;
50605;SDS011;36557;53.572;10.170;2023-03-23T16:03:04;4.63;;;1.55;;
50605;SDS011;36557;53.572;10.170;2023-03-23T16:05:32;5.85;;;1.30;;
50605;SDS011;36557;53.572;10.170;2023-03-23T16:07:58;7.43;;;1.50;;
50605;SDS011;36557;53.572;10.170;2023-03-23T16:10:25;4.18;;;1.10;;
50605;SDS011;36557;53.572;10.170;2023-03-23T16:12:51;3.08;;;1.30;;
50605;SDS011;36557;53.572;10.170;2023-03-23T16:15:17;7.50;;;1.70;;
50605;SDS011;36557;53.572;10.170;2023-03-23T16:17:45;4.10;;;1.40;;
50605;SDS011;36557;53.572;10.170;2023-03-23T16:20:17;5.60;;;2.95;;
50605;SDS011;36557;53.572;10.170;2023-03-23T16:22:44;3.65;;;1.17;;
50605;SDS011;36557;53.572;10.170;2023-03-23T16:25:11;2.38;;;1.10;;
50605;SDS011;36557;53.572;10.170;2023-03-23T16:27:37;1.85;;;0.93;;
50605;SDS011;36557;53.572;10.170;2023-03-23T16:30:25;7.28;;;1.60;;
50605;SDS011;36557;53.572;10.170;2023-03-23T16:32:51;4.53;;;1.38;;
50605;SDS011;36557;53.572;10.170;2023-03-23T16:35:17;5.57;;;1.60;;
50605;SDS011;36557;53.572;10.170;2023-03-23T16:37:47;4.00;;;1.70;;
50605;SDS011;36557;53.572;10.170;2023-03-23T16:40:15;4.50;;;1.20;;
50605;SDS011;36557;53.572;10.170;2023-03-23T16:42:42;5.00;;;1.05;;
50605;SDS011;36557;53.572;10.170;2023-03-23T16:45:08;5.57;;;1.42;;
50605;SDS011;36557;53.572;10.170;2023-03-23T16:47:35;5.22;;;1.52;;
50605;SDS011;36557;53.572;10.170;2023-03-23T16:50:01;5.35;;;1.75;;
50605;SDS011;36557;53.572;10.170;2023-03-23T16:52:27;4.72;;;1.48;;
50605;SDS011;36557;53.572;10.170;2023-03-23T16:54:53;9.80;;;1.20;;
50605;SDS011;36557;53.572;10.170;2023-03-23T16:57:18;4.57;;;1.45;;
50605;SDS011;36557;53.572;10.170;2023-03-23T16:59:44;5.97;;;1.67;;
50605;SDS011;36557;53.572;10.170;2023-03-23T17:02:10;4.00;;;1.10;;
50605;SDS011;36557;53.572;10.170;2023-03-23T17:04:36;7.30;;;1.67;;
50605;SDS011;36557;53.572;10.170;2023-03-23T17:07:06;10.13;;;2.60;;
50605;SDS011;36557;53.572;10.170;2023-03-23T17:09:32;7.13;;;2.47;;